sensor_id;sensor_type;location;lat;lon;timestamp;temperature;humidity
70366;DHT22;57787;48.216;12.396;2023-01-15T00:01:43;6.00;70.90
70366;DHT22;57787;48.216;12.396;2023-01-15T00:04:11;6.00;71.60
70366;DHT22;57787;48.216;12.396;2023-01-15T00:06:41;6.00;71.30
70366;DHT22;57787;48.216;12.396;2023-01-15T00:09:14;6.00;71.70
70366;DHT22;57787;48.216;12.396;2023-01-15T00:11:42;6.00;72.00
70366;DHT22;57787;48.216;12.396;2023-01-15T00:14:10;5.90;72.50
70366;DHT22;57787;48.216;12.396;2023-01-15T00:16:39;5.90;72.20
70366;DHT22;57787;48.216;12.396;2023-01-15T00:19:09;6.00;71.10
70366;DHT22;57787;48.216;12.396;2023-01-15T00:21:38;6.00;70.10
70366;DHT22;57787;48.216;12.396;2023-01-15T00:24:08;6.00;69.30
70366;DHT22;57787;48.216;12.396;2023-01-15T00:26:54;6.00;69.10
70366;DHT22;57787;48.216;12.396;2023-01-15T00:29:41;6.00;69.10
70366;DHT22;57787;48.216;12.396;2023-01-15T00:32:09;6.00;68.70
70366;DHT22;57787;48.216;12.396;2023-01-15T00:34:38;6.10;69.00
70366;DHT22;57787;48.216;12.396;2023-01-15T00:37:08;6.10;69.50
70366;DHT22;57787;48.216;12.396;2023-01-15T00:39:36;6.00;69.80
70366;DHT22;57787;48.216;12.396;2023-01-15T00:42:04;6.10;69.00
70366;DHT22;57787;48.216;12.396;2023-01-15T00:44:31;6.10;69.30
70366;DHT22;57787;48.216;12.396;2023-01-15T00:47:01;6.00;69.30
70366;DHT22;57787;48.216;12.396;2023-01-15T00:49:29;6.10;68.90
70366;DHT22;57787;48.216;12.396;2023-01-15T00:51:57;6.10;69.20
70366;DHT22;57787;48.216;12.396;2023-01-15T00:54:25;6.10;69.80
70366;DHT22;57787;48.216;12.396;2023-01-15T00:56:54;6.10;70.10
70366;DHT22;57787;48.216;12.396;2023-01-15T00:59:22;6.10;69.60
70366;DHT22;57787;48.216;12.396;2023-01-15T01:01:51;6.10;69.20
70366;DHT22;57787;48.216;12.396;2023-01-15T01:04:19;6.10;69.60
70366;DHT22;57787;48.216;12.396;2023-01-15T01:06:47;6.00;68.80
70366;DHT22;57787;48.216;12.396;2023-01-15T01:09:16;6.00;68.90
70366;DHT22;57787;48.216;12.396;2023-01-15T01:11:48;6.00;69.60
70366;DHT22;57787;48.216;12.396;2023-01-15T01:14:16;6.00;69.50
70366;DHT22;57787;48.216;12.396;2023-01-15T01:16:44;6.00;69.10
70366;DHT22;57787;48.216;12.396;2023-01-15T01:19:17;6.00;69.60
70366;DHT22;57787;48.216;12.396;2023-01-15T01:21:46;6.00;69.70
70366;DHT22;57787;48.216;12.396;2023-01-15T01:24:18;6.00;69.80
70366;DHT22;57787;48.216;12.396;2023-01-15T01:26:47;6.00;70.80
70366;DHT22;57787;48.216;12.396;2023-01-15T01:29:18;6.00;70.60
70366;DHT22;57787;48.216;12.396;2023-01-15T01:31:47;6.00;70.90
70366;DHT22;57787;48.216;12.396;2023-01-15T01:34:15;6.00;70.60
70366;DHT22;57787;48.216;12.396;2023-01-15T01:36:42;6.00;70.80
70366;DHT22;57787;48.216;12.396;2023-01-15T01:39:17;6.00;70.60
70366;DHT22;57787;48.216;12.396;2023-01-15T01:41:46;6.00;71.10
70366;DHT22;57787;48.216;12.396;2023-01-15T01:47:04;6.00;70.90
70366;DHT22;57787;48.216;12.396;2023-01-15T01:49:37;6.00;71.40
70366;DHT22;57787;48.216;12.396;2023-01-15T01:52:16;6.00;71.50
70366;DHT22;57787;48.216;12.396;2023-01-15T01:54:46;6.00;72.30
70366;DHT22;57787;48.216;12.396;2023-01-15T01:57:17;6.00;71.70
70366;DHT22;57787;48.216;12.396;2023-01-15T01:59:47;6.00;71.20
70366;DHT22;57787;48.216;12.396;2023-01-15T02:02:18;6.00;72.30
70366;DHT22;57787;48.216;12.396;2023-01-15T02:04:48;6.00;73.00
70366;DHT22;57787;48.216;12.396;2023-01-15T02:07:16;6.00;73.80
70366;DHT22;57787;48.216;12.396;2023-01-15T02:09:44;6.00;73.90
70366;DHT22;57787;48.216;12.396;2023-01-15T02:12:30;6.00;73.60
70366;DHT22;57787;48.216;12.396;2023-01-15T02:15:09;6.00;73.90
70366;DHT22;57787;48.216;12.396;2023-01-15T02:17:54;6.00;74.60
70366;DHT22;57787;48.216;12.396;2023-01-15T02:23:32;6.00;74.20
70366;DHT22;57787;48.216;12.396;2023-01-15T02:29:09;6.00;73.90
70366;DHT22;57787;48.216;12.396;2023-01-15T02:31:42;6.00;74.00
70366;DHT22;57787;48.216;12.396;2023-01-15T02:34:26;6.00;74.20
70366;DHT22;57787;48.216;12.396;2023-01-15T02:37:12;6.00;75.40
70366;DHT22;57787;48.216;12.396;2023-01-15T02:39:44;6.00;74.90
70366;DHT22;57787;48.216;12.396;2023-01-15T02:42:16;6.00;75.00
70366;DHT22;57787;48.216;12.396;2023-01-15T02:44:50;5.90;76.10
70366;DHT22;57787;48.216;12.396;2023-01-15T02:47:26;5.90;76.90
70366;DHT22;57787;48.216;12.396;2023-01-15T02:49:59;5.90;77.30
70366;DHT22;57787;48.216;12.396;2023-01-15T02:52:33;5.90;78.00
70366;DHT22;57787;48.216;12.396;2023-01-15T02:55:10;5.90;78.40
70366;DHT22;57787;48.216;12.396;2023-01-15T02:57:42;5.80;78.90
70366;DHT22;57787;48.216;12.396;2023-01-15T03:00:16;5.80;80.00
70366;DHT22;57787;48.216;12.396;2023-01-15T03:02:53;5.80;79.40
70366;DHT22;57787;48.216;12.396;2023-01-15T03:05:26;5.80;79.80
70366;DHT22;57787;48.216;12.396;2023-01-15T03:08:02;5.80;80.70
70366;DHT22;57787;48.216;12.396;2023-01-15T03:10:42;5.80;81.50
70366;DHT22;57787;48.216;12.396;2023-01-15T03:13:20;5.70;81.40
70366;DHT22;57787;48.216;12.396;2023-01-15T03:21:57;5.70;81.90
70366;DHT22;57787;48.216;12.396;2023-01-15T03:24:37;5.60;82.80
70366;DHT22;57787;48.216;12.396;2023-01-15T03:27:08;5.60;83.10
70366;DHT22;57787;48.216;12.396;2023-01-15T03:29:42;5.60;82.00
70366;DHT22;57787;48.216;12.396;2023-01-15T03:32:15;5.60;83.40
70366;DHT22;57787;48.216;12.396;2023-01-15T03:34:55;5.60;83.60
70366;DHT22;57787;48.216;12.396;2023-01-15T03:37:28;5.50;83.60
70366;DHT22;57787;48.216;12.396;2023-01-15T03:39:59;5.50;82.80
70366;DHT22;57787;48.216;12.396;2023-01-15T03:45:27;5.50;83.40
70366;DHT22;57787;48.216;12.396;2023-01-15T03:51:08;5.50;83.50
70366;DHT22;57787;48.216;12.396;2023-01-15T03:53:48;5.50;83.70
70366;DHT22;57787;48.216;12.396;2023-01-15T03:56:35;5.50;83.20
70366;DHT22;57787;48.216;12.396;2023-01-15T03:59:10;5.60;83.30
70366;DHT22;57787;48.216;12.396;2023-01-15T04:01:41;5.60;84.20
70366;DHT22;57787;48.216;12.396;2023-01-15T04:04:15;5.50;84.50
70366;DHT22;57787;48.216;12.396;2023-01-15T04:06:44;5.50;84.50
70366;DHT22;57787;48.216;12.396;2023-01-15T04:09:14;5.60;84.60
70366;DHT22;57787;48.216;12.396;2023-01-15T04:11:43;5.50;84.60
70366;DHT22;57787;48.216;12.396;2023-01-15T04:14:13;5.60;84.80
70366;DHT22;57787;48.216;12.396;2023-01-15T04:16:41;5.60;85.00
70366;DHT22;57787;48.216;12.396;2023-01-15T04:19:11;5.60;84.90
70366;DHT22;57787;48.216;12.396;2023-01-15T04:21:39;5.60;85.00
70366;DHT22;57787;48.216;12.396;2023-01-15T04:24:07;5.70;84.70
70366;DHT22;57787;48.216;12.396;2023-01-15T04:26:36;5.70;84.10
70366;DHT22;57787;48.216;12.396;2023-01-15T04:29:03;5.70;84.70
70366;DHT22;57787;48.216;12.396;2023-01-15T04:31:32;5.80;85.80
70366;DHT22;57787;48.216;12.396;2023-01-15T04:34:04;5.80;85.60
70366;DHT22;57787;48.216;12.396;2023-01-15T04:36:32;5.70;85.10
70366;DHT22;57787;48.216;12.396;2023-01-15T04:39:04;5.80;85.10
70366;DHT22;57787;48.216;12.396;2023-01-15T04:41:32;5.80;85.20
70366;DHT22;57787;48.216;12.396;2023-01-15T04:44:18;5.80;84.90
70366;DHT22;57787;48.216;12.396;2023-01-15T04:46:48;5.80;84.90
70366;DHT22;57787;48.216;12.396;2023-01-15T04:49:17;5.80;84.50
70366;DHT22;57787;48.216;12.396;2023-01-15T04:51:45;5.80;84.30
70366;DHT22;57787;48.216;12.396;2023-01-15T04:54:15;5.80;84.20
70366;DHT22;57787;48.216;12.396;2023-01-15T04:56:47;5.80;83.90
70366;DHT22;57787;48.216;12.396;2023-01-15T04:59:20;5.80;84.00
70366;DHT22;57787;48.216;12.396;2023-01-15T05:01:49;5.80;83.30
70366;DHT22;57787;48.216;12.396;2023-01-15T05:04:31;5.80;83.50
70366;DHT22;57787;48.216;12.396;2023-01-15T05:07:02;5.80;83.00
70366;DHT22;57787;48.216;12.396;2023-01-15T05:09:31;5.80;83.40
70366;DHT22;57787;48.216;12.396;2023-01-15T05:11:59;5.80;83.50
70366;DHT22;57787;48.216;12.396;2023-01-15T05:14:27;5.80;83.80
70366;DHT22;57787;48.216;12.396;2023-01-15T05:16:55;5.80;82.60
70366;DHT22;57787;48.216;12.396;2023-01-15T05:19:24;5.80;82.90
70366;DHT22;57787;48.216;12.396;2023-01-15T05:21:51;5.80;83.20
70366;DHT22;57787;48.216;12.396;2023-01-15T05:24:19;5.80;82.70
70366;DHT22;57787;48.216;12.396;2023-01-15T05:26:47;5.80;82.50
70366;DHT22;57787;48.216;12.396;2023-01-15T05:29:16;5.80;82.50
70366;DHT22;57787;48.216;12.396;2023-01-15T05:31:45;5.80;81.80
70366;DHT22;57787;48.216;12.396;2023-01-15T05:34:14;5.80;81.90
70366;DHT22;57787;48.216;12.396;2023-01-15T05:36:43;5.80;81.90
70366;DHT22;57787;48.216;12.396;2023-01-15T05:39:14;5.80;81.50
70366;DHT22;57787;48.216;12.396;2023-01-15T05:41:45;5.80;81.40
70366;DHT22;57787;48.216;12.396;2023-01-15T05:44:24;5.80;81.50
70366;DHT22;57787;48.216;12.396;2023-01-15T05:47:01;5.80;81.30
70366;DHT22;57787;48.216;12.396;2023-01-15T05:49:34;5.80;81.50
70366;DHT22;57787;48.216;12.396;2023-01-15T05:52:02;5.80;81.50
70366;DHT22;57787;48.216;12.396;2023-01-15T05:54:34;5.80;81.70
70366;DHT22;57787;48.216;12.396;2023-01-15T05:57:02;5.80;81.40
70366;DHT22;57787;48.216;12.396;2023-01-15T05:59:31;5.80;81.90
70366;DHT22;57787;48.216;12.396;2023-01-15T06:02:03;5.80;82.00
70366;DHT22;57787;48.216;12.396;2023-01-15T06:04:32;5.80;82.10
70366;DHT22;57787;48.216;12.396;2023-01-15T06:07:00;5.80;82.50
70366;DHT22;57787;48.216;12.396;2023-01-15T06:09:29;5.80;82.50
70366;DHT22;57787;48.216;12.396;2023-01-15T06:11:57;5.80;83.00
70366;DHT22;57787;48.216;12.396;2023-01-15T06:14:25;5.80;83.50
70366;DHT22;57787;48.216;12.396;2023-01-15T06:16:53;5.80;83.80
70366;DHT22;57787;48.216;12.396;2023-01-15T06:19:22;5.80;83.80
70366;DHT22;57787;48.216;12.396;2023-01-15T06:21:50;5.70;84.10
70366;DHT22;57787;48.216;12.396;2023-01-15T06:24:18;5.80;84.20
70366;DHT22;57787;48.216;12.396;2023-01-15T06:26:46;5.70;84.20
70366;DHT22;57787;48.216;12.396;2023-01-15T06:29:16;5.70;83.90
70366;DHT22;57787;48.216;12.396;2023-01-15T06:31:45;5.70;84.20
70366;DHT22;57787;48.216;12.396;2023-01-15T06:34:15;5.70;84.50
70366;DHT22;57787;48.216;12.396;2023-01-15T06:36:43;5.70;84.60
70366;DHT22;57787;48.216;12.396;2023-01-15T06:39:11;5.70;85.00
70366;DHT22;57787;48.216;12.396;2023-01-15T06:41:39;5.80;85.10
70366;DHT22;57787;48.216;12.396;2023-01-15T06:44:25;5.80;85.30
70366;DHT22;57787;48.216;12.396;2023-01-15T06:47:13;5.70;85.30
70366;DHT22;57787;48.216;12.396;2023-01-15T06:49:51;5.70;85.50
70366;DHT22;57787;48.216;12.396;2023-01-15T06:52:26;5.70;86.20
70366;DHT22;57787;48.216;12.396;2023-01-15T06:54:57;5.70;85.60
70366;DHT22;57787;48.216;12.396;2023-01-15T06:57:25;5.70;86.10
70366;DHT22;57787;48.216;12.396;2023-01-15T06:59:54;5.70;86.40
70366;DHT22;57787;48.216;12.396;2023-01-15T07:02:23;5.70;86.40
70366;DHT22;57787;48.216;12.396;2023-01-15T07:04:51;5.70;86.30
70366;DHT22;57787;48.216;12.396;2023-01-15T07:07:21;5.70;86.60
70366;DHT22;57787;48.216;12.396;2023-01-15T07:09:53;5.70;86.70
70366;DHT22;57787;48.216;12.396;2023-01-15T07:12:23;5.60;86.80
70366;DHT22;57787;48.216;12.396;2023-01-15T07:14:52;5.70;87.10
70366;DHT22;57787;48.216;12.396;2023-01-15T07:17:26;5.60;87.40
70366;DHT22;57787;48.216;12.396;2023-01-15T07:19:59;5.60;87.30
70366;DHT22;57787;48.216;12.396;2023-01-15T07:22:33;5.60;87.40
70366;DHT22;57787;48.216;12.396;2023-01-15T07:25:01;5.60;87.30
70366;DHT22;57787;48.216;12.396;2023-01-15T07:27:31;5.60;87.60
70366;DHT22;57787;48.216;12.396;2023-01-15T07:30:03;5.60;87.70
70366;DHT22;57787;48.216;12.396;2023-01-15T07:32:33;5.60;87.70
70366;DHT22;57787;48.216;12.396;2023-01-15T07:35:06;5.60;87.60
70366;DHT22;57787;48.216;12.396;2023-01-15T07:37:34;5.60;87.70
70366;DHT22;57787;48.216;12.396;2023-01-15T07:40:01;5.70;88.00
70366;DHT22;57787;48.216;12.396;2023-01-15T07:42:29;5.70;88.10
70366;DHT22;57787;48.216;12.396;2023-01-15T07:45:16;5.70;88.30
70366;DHT22;57787;48.216;12.396;2023-01-15T07:48:11;5.70;88.10
70366;DHT22;57787;48.216;12.396;2023-01-15T07:51:01;5.70;87.90
70366;DHT22;57787;48.216;12.396;2023-01-15T07:53:29;5.70;87.70
70366;DHT22;57787;48.216;12.396;2023-01-15T07:55:57;5.70;87.50
70366;DHT22;57787;48.216;12.396;2023-01-15T07:58:27;5.80;87.60
70366;DHT22;57787;48.216;12.396;2023-01-15T08:00:55;5.70;87.80
70366;DHT22;57787;48.216;12.396;2023-01-15T08:03:23;5.80;87.80
70366;DHT22;57787;48.216;12.396;2023-01-15T08:05:52;5.80;87.80
70366;DHT22;57787;48.216;12.396;2023-01-15T08:08:24;5.80;88.00
70366;DHT22;57787;48.216;12.396;2023-01-15T08:10:52;5.80;88.00
70366;DHT22;57787;48.216;12.396;2023-01-15T08:13:46;5.80;88.00
70366;DHT22;57787;48.216;12.396;2023-01-15T08:16:36;5.90;87.90
70366;DHT22;57787;48.216;12.396;2023-01-15T08:19:03;5.90;87.70
70366;DHT22;57787;48.216;12.396;2023-01-15T08:21:32;5.90;87.30
70366;DHT22;57787;48.216;12.396;2023-01-15T08:23:59;6.00;87.10
70366;DHT22;57787;48.216;12.396;2023-01-15T08:26:27;6.00;86.70
70366;DHT22;57787;48.216;12.396;2023-01-15T08:28:55;6.10;86.70
70366;DHT22;57787;48.216;12.396;2023-01-15T08:31:28;6.10;86.60
70366;DHT22;57787;48.216;12.396;2023-01-15T08:33:58;6.20;85.40
70366;DHT22;57787;48.216;12.396;2023-01-15T08:36:33;6.30;85.50
70366;DHT22;57787;48.216;12.396;2023-01-15T08:39:01;6.30;85.70
70366;DHT22;57787;48.216;12.396;2023-01-15T08:41:31;6.30;84.80
70366;DHT22;57787;48.216;12.396;2023-01-15T08:44:00;6.40;84.00
70366;DHT22;57787;48.216;12.396;2023-01-15T08:46:27;6.40;83.30
70366;DHT22;57787;48.216;12.396;2023-01-15T08:48:55;6.50;83.20
70366;DHT22;57787;48.216;12.396;2023-01-15T08:51:23;6.50;82.50
70366;DHT22;57787;48.216;12.396;2023-01-15T08:53:54;6.60;81.90
70366;DHT22;57787;48.216;12.396;2023-01-15T08:56:24;6.60;81.90
70366;DHT22;57787;48.216;12.396;2023-01-15T08:58:52;6.60;81.60
70366;DHT22;57787;48.216;12.396;2023-01-15T09:01:20;6.70;81.00
70366;DHT22;57787;48.216;12.396;2023-01-15T09:03:49;6.70;81.20
70366;DHT22;57787;48.216;12.396;2023-01-15T09:06:17;6.80;80.90
70366;DHT22;57787;48.216;12.396;2023-01-15T09:08:45;6.80;81.10
70366;DHT22;57787;48.216;12.396;2023-01-15T09:11:14;6.80;80.70
70366;DHT22;57787;48.216;12.396;2023-01-15T09:13:45;6.90;80.50
70366;DHT22;57787;48.216;12.396;2023-01-15T09:16:14;6.90;80.40
70366;DHT22;57787;48.216;12.396;2023-01-15T09:18:47;7.00;80.10
70366;DHT22;57787;48.216;12.396;2023-01-15T09:21:19;7.00;79.80
70366;DHT22;57787;48.216;12.396;2023-01-15T09:23:50;7.10;80.10
70366;DHT22;57787;48.216;12.396;2023-01-15T09:28:55;7.20;79.80
70366;DHT22;57787;48.216;12.396;2023-01-15T09:31:34;7.20;79.70
70366;DHT22;57787;48.216;12.396;2023-01-15T09:34:03;7.20;79.60
70366;DHT22;57787;48.216;12.396;2023-01-15T09:36:33;7.20;79.10
70366;DHT22;57787;48.216;12.396;2023-01-15T09:39:03;7.30;79.10
70366;DHT22;57787;48.216;12.396;2023-01-15T09:44:57;7.40;79.40
70366;DHT22;57787;48.216;12.396;2023-01-15T09:48:01;7.50;78.70
70366;DHT22;57787;48.216;12.396;2023-01-15T09:55:49;7.80;76.30
70366;DHT22;57787;48.216;12.396;2023-01-15T09:58:22;7.80;75.80
70366;DHT22;57787;48.216;12.396;2023-01-15T10:00:54;7.90;74.80
70366;DHT22;57787;48.216;12.396;2023-01-15T10:03:32;7.90;74.80
70366;DHT22;57787;48.216;12.396;2023-01-15T10:06:24;8.00;75.10
70366;DHT22;57787;48.216;12.396;2023-01-15T10:09:05;8.10;75.00
70366;DHT22;57787;48.216;12.396;2023-01-15T10:11:44;8.20;75.10
70366;DHT22;57787;48.216;12.396;2023-01-15T10:14:39;8.20;74.60
70366;DHT22;57787;48.216;12.396;2023-01-15T10:17:52;8.30;74.40
70366;DHT22;57787;48.216;12.396;2023-01-15T10:26:18;8.50;73.10
70366;DHT22;57787;48.216;12.396;2023-01-15T10:35:16;8.80;76.80
70366;DHT22;57787;48.216;12.396;2023-01-15T10:46:04;9.20;77.20
70366;DHT22;57787;48.216;12.396;2023-01-15T10:48:48;9.50;77.30
70366;DHT22;57787;48.216;12.396;2023-01-15T10:51:20;9.80;78.10
70366;DHT22;57787;48.216;12.396;2023-01-15T10:54:26;10.20;79.00
70366;DHT22;57787;48.216;12.396;2023-01-15T11:00:04;10.30;77.10
70366;DHT22;57787;48.216;12.396;2023-01-15T11:05:37;10.20;77.50
70366;DHT22;57787;48.216;12.396;2023-01-15T11:08:18;10.10;76.20
70366;DHT22;57787;48.216;12.396;2023-01-15T11:14:42;9.90;77.00
70366;DHT22;57787;48.216;12.396;2023-01-15T11:17:50;9.70;77.50
70366;DHT22;57787;48.216;12.396;2023-01-15T11:20:57;9.60;76.80
70366;DHT22;57787;48.216;12.396;2023-01-15T11:23:26;9.30;75.80
70366;DHT22;57787;48.216;12.396;2023-01-15T11:25:57;9.30;75.90
70366;DHT22;57787;48.216;12.396;2023-01-15T11:28:42;9.20;74.70
70366;DHT22;57787;48.216;12.396;2023-01-15T11:31:13;9.10;74.50
70366;DHT22;57787;48.216;12.396;2023-01-15T11:33:57;9.00;75.40
70366;DHT22;57787;48.216;12.396;2023-01-15T11:36:29;9.00;75.10
70366;DHT22;57787;48.216;12.396;2023-01-15T11:38:58;8.80;74.70
70366;DHT22;57787;48.216;12.396;2023-01-15T11:41:27;8.70;74.40
70366;DHT22;57787;48.216;12.396;2023-01-15T11:44:18;8.60;73.90
70366;DHT22;57787;48.216;12.396;2023-01-15T11:47:11;8.50;74.40
70366;DHT22;57787;48.216;12.396;2023-01-15T11:49:59;8.40;76.00
70366;DHT22;57787;48.216;12.396;2023-01-15T11:52:52;8.40;76.40
70366;DHT22;57787;48.216;12.396;2023-01-15T11:55:23;8.40;75.70
70366;DHT22;57787;48.216;12.396;2023-01-15T11:57:55;8.30;75.40
70366;DHT22;57787;48.216;12.396;2023-01-15T12:00:26;8.30;76.10
70366;DHT22;57787;48.216;12.396;2023-01-15T12:03:17;8.30;75.80
70366;DHT22;57787;48.216;12.396;2023-01-15T12:06:00;8.30;75.90
70366;DHT22;57787;48.216;12.396;2023-01-15T12:08:54;8.10;75.30
70366;DHT22;57787;48.216;12.396;2023-01-15T12:23:01;7.80;75.60
70366;DHT22;57787;48.216;12.396;2023-01-15T12:25:54;7.70;77.20
70366;DHT22;57787;48.216;12.396;2023-01-15T12:28:31;7.70;77.50
70366;DHT22;57787;48.216;12.396;2023-01-15T12:34:28;7.60;77.80
70366;DHT22;57787;48.216;12.396;2023-01-15T12:37:16;7.60;77.70
70366;DHT22;57787;48.216;12.396;2023-01-15T12:42:35;7.40;78.40
70366;DHT22;57787;48.216;12.396;2023-01-15T12:45:28;7.40;78.90
70366;DHT22;57787;48.216;12.396;2023-01-15T12:50:43;7.30;77.80
70366;DHT22;57787;48.216;12.396;2023-01-15T12:56:13;7.10;79.10
70366;DHT22;57787;48.216;12.396;2023-01-15T13:04:31;7.00;80.80
70366;DHT22;57787;48.216;12.396;2023-01-15T13:10:22;7.10;81.70
70366;DHT22;57787;48.216;12.396;2023-01-15T13:12:53;7.00;81.60
70366;DHT22;57787;48.216;12.396;2023-01-15T13:15:27;7.00;82.00
70366;DHT22;57787;48.216;12.396;2023-01-15T13:18:10;7.00;81.80
70366;DHT22;57787;48.216;12.396;2023-01-15T13:20:51;6.90;81.80
70366;DHT22;57787;48.216;12.396;2023-01-15T13:32:25;6.80;82.20
70366;DHT22;57787;48.216;12.396;2023-01-15T13:35:05;6.80;82.80
70366;DHT22;57787;48.216;12.396;2023-01-15T13:42:50;6.70;82.80
70366;DHT22;57787;48.216;12.396;2023-01-15T13:45:31;6.70;81.80
70366;DHT22;57787;48.216;12.396;2023-01-15T13:48:15;6.70;82.50
70366;DHT22;57787;48.216;12.396;2023-01-15T13:50:59;6.60;82.80
70366;DHT22;57787;48.216;12.396;2023-01-15T13:53:45;6.60;82.90
70366;DHT22;57787;48.216;12.396;2023-01-15T13:56:25;6.60;83.50
70366;DHT22;57787;48.216;12.396;2023-01-15T13:59:04;6.60;83.20
70366;DHT22;57787;48.216;12.396;2023-01-15T14:01:34;6.50;83.00
70366;DHT22;57787;48.216;12.396;2023-01-15T14:04:13;6.50;83.50
70366;DHT22;57787;48.216;12.396;2023-01-15T14:06:46;6.50;84.20
70366;DHT22;57787;48.216;12.396;2023-01-15T14:15:15;6.50;83.90
70366;DHT22;57787;48.216;12.396;2023-01-15T14:23:24;6.40;83.80
70366;DHT22;57787;48.216;12.396;2023-01-15T14:26:14;6.40;84.20
70366;DHT22;57787;48.216;12.396;2023-01-15T14:32:08;6.30;84.10
70366;DHT22;57787;48.216;12.396;2023-01-15T14:34:42;6.30;84.80
70366;DHT22;57787;48.216;12.396;2023-01-15T14:39:55;6.20;84.80
70366;DHT22;57787;48.216;12.396;2023-01-15T14:42:35;6.20;84.30
70366;DHT22;57787;48.216;12.396;2023-01-15T14:45:28;6.20;84.60
70366;DHT22;57787;48.216;12.396;2023-01-15T14:48:04;6.20;84.90
70366;DHT22;57787;48.216;12.396;2023-01-15T14:50:37;6.10;84.80
70366;DHT22;57787;48.216;12.396;2023-01-15T14:55:56;6.10;84.80
70366;DHT22;57787;48.216;12.396;2023-01-15T15:06:50;5.90;84.40
70366;DHT22;57787;48.216;12.396;2023-01-15T15:09:32;5.70;83.20
70366;DHT22;57787;48.216;12.396;2023-01-15T15:15:11;5.40;84.40
70366;DHT22;57787;48.216;12.396;2023-01-15T15:18:00;5.30;84.60
70366;DHT22;57787;48.216;12.396;2023-01-15T15:26:31;5.30;85.30
70366;DHT22;57787;48.216;12.396;2023-01-15T15:34:06;5.20;86.10
70366;DHT22;57787;48.216;12.396;2023-01-15T15:36:39;5.20;86.20
70366;DHT22;57787;48.216;12.396;2023-01-15T15:39:18;5.10;86.10
70366;DHT22;57787;48.216;12.396;2023-01-15T15:41:51;5.10;86.20
70366;DHT22;57787;48.216;12.396;2023-01-15T15:44:54;5.10;86.10
70366;DHT22;57787;48.216;12.396;2023-01-15T15:47:45;5.00;86.20
70366;DHT22;57787;48.216;12.396;2023-01-15T15:50:34;5.00;86.30
70366;DHT22;57787;48.216;12.396;2023-01-15T15:53:14;5.00;86.20
70366;DHT22;57787;48.216;12.396;2023-01-15T15:55:52;4.90;86.30
70366;DHT22;57787;48.216;12.396;2023-01-15T15:58:33;4.90;86.00
70366;DHT22;57787;48.216;12.396;2023-01-15T16:01:03;4.80;86.00
70366;DHT22;57787;48.216;12.396;2023-01-15T16:03:32;4.80;86.00
70366;DHT22;57787;48.216;12.396;2023-01-15T16:06:06;4.70;86.20
70366;DHT22;57787;48.216;12.396;2023-01-15T16:08:35;4.70;86.30
70366;DHT22;57787;48.216;12.396;2023-01-15T16:11:09;4.70;86.40
70366;DHT22;57787;48.216;12.396;2023-01-15T16:13:47;4.60;86.40
70366;DHT22;57787;48.216;12.396;2023-01-15T16:16:26;4.60;86.40
70366;DHT22;57787;48.216;12.396;2023-01-15T16:18:56;4.50;86.30
70366;DHT22;57787;48.216;12.396;2023-01-15T16:21:36;4.50;86.40
70366;DHT22;57787;48.216;12.396;2023-01-15T16:24:26;4.50;86.60
70366;DHT22;57787;48.216;12.396;2023-01-15T16:27:01;4.50;86.90
70366;DHT22;57787;48.216;12.396;2023-01-15T16:29:33;4.50;86.90
70366;DHT22;57787;48.216;12.396;2023-01-15T16:32:28;4.50;87.10
70366;DHT22;57787;48.216;12.396;2023-01-15T16:35:15;4.50;87.30
70366;DHT22;57787;48.216;12.396;2023-01-15T16:37:48;4.50;87.60
70366;DHT22;57787;48.216;12.396;2023-01-15T16:40:32;4.50;87.50
70366;DHT22;57787;48.216;12.396;2023-01-15T16:48:41;4.50;87.60
70366;DHT22;57787;48.216;12.396;2023-01-15T16:51:36;4.50;87.60
70366;DHT22;57787;48.216;12.396;2023-01-15T16:57:25;4.60;87.30
70366;DHT22;57787;48.216;12.396;2023-01-15T17:00:03;4.60;87.40
70366;DHT22;57787;48.216;12.396;2023-01-15T17:02:43;4.50;87.30
70366;DHT22;57787;48.216;12.396;2023-01-15T17:05:22;4.50;87.30
70366;DHT22;57787;48.216;12.396;2023-01-15T17:07:52;4.50;87.20
70366;DHT22;57787;48.216;12.396;2023-01-15T17:10:26;4.40;86.80
70366;DHT22;57787;48.216;12.396;2023-01-15T17:12:56;4.50;86.90
70366;DHT22;57787;48.216;12.396;2023-01-15T17:15:29;4.40;86.80
70366;DHT22;57787;48.216;12.396;2023-01-15T17:18:19;4.40;86.90
70366;DHT22;57787;48.216;12.396;2023-01-15T17:20:47;4.40;87.10
70366;DHT22;57787;48.216;12.396;2023-01-15T17:23:24;4.40;87.10
70366;DHT22;57787;48.216;12.396;2023-01-15T17:25:53;4.30;87.20
70366;DHT22;57787;48.216;12.396;2023-01-15T17:28:22;4.40;87.20
70366;DHT22;57787;48.216;12.396;2023-01-15T17:30:56;4.40;87.20
70366;DHT22;57787;48.216;12.396;2023-01-15T17:33:25;4.40;87.30
70366;DHT22;57787;48.216;12.396;2023-01-15T17:35:53;4.40;87.60
70366;DHT22;57787;48.216;12.396;2023-01-15T17:38:25;4.40;87.40
70366;DHT22;57787;48.216;12.396;2023-01-15T17:40:57;4.40;87.30
70366;DHT22;57787;48.216;12.396;2023-01-15T17:43:25;4.40;87.40
70366;DHT22;57787;48.216;12.396;2023-01-15T17:45:53;4.40;87.30
70366;DHT22;57787;48.216;12.396;2023-01-15T17:48:21;4.40;87.20
70366;DHT22;57787;48.216;12.396;2023-01-15T17:50:49;4.40;87.00
70366;DHT22;57787;48.216;12.396;2023-01-15T17:53:16;4.40;86.70
70366;DHT22;57787;48.216;12.396;2023-01-15T17:55:45;4.40;86.90
70366;DHT22;57787;48.216;12.396;2023-01-15T17:58:31;4.40;86.90
70366;DHT22;57787;48.216;12.396;2023-01-15T18:01:20;4.40;87.00
70366;DHT22;57787;48.216;12.396;2023-01-15T18:04:28;4.40;86.90
70366;DHT22;57787;48.216;12.396;2023-01-15T18:07:19;4.40;86.40
70366;DHT22;57787;48.216;12.396;2023-01-15T18:09:48;4.30;86.20
70366;DHT22;57787;48.216;12.396;2023-01-15T18:12:19;4.40;86.20
70366;DHT22;57787;48.216;12.396;2023-01-15T18:14:47;4.40;86.00
70366;DHT22;57787;48.216;12.396;2023-01-15T18:17:16;4.30;86.10
70366;DHT22;57787;48.216;12.396;2023-01-15T18:19:44;4.30;86.10
70366;DHT22;57787;48.216;12.396;2023-01-15T18:22:12;4.30;85.80
70366;DHT22;57787;48.216;12.396;2023-01-15T18:24:40;4.30;85.90
70366;DHT22;57787;48.216;12.396;2023-01-15T18:27:08;4.30;86.00
70366;DHT22;57787;48.216;12.396;2023-01-15T18:29:36;4.30;85.90
70366;DHT22;57787;48.216;12.396;2023-01-15T18:32:08;4.20;85.30
70366;DHT22;57787;48.216;12.396;2023-01-15T18:34:40;4.20;85.20
70366;DHT22;57787;48.216;12.396;2023-01-15T18:37:10;4.10;85.50
70366;DHT22;57787;48.216;12.396;2023-01-15T18:39:42;4.10;85.70
70366;DHT22;57787;48.216;12.396;2023-01-15T18:42:11;4.00;85.80
70366;DHT22;57787;48.216;12.396;2023-01-15T18:44:39;4.00;85.80
70366;DHT22;57787;48.216;12.396;2023-01-15T18:47:26;3.90;85.90
70366;DHT22;57787;48.216;12.396;2023-01-15T18:49:55;3.90;85.80
70366;DHT22;57787;48.216;12.396;2023-01-15T18:52:23;3.80;85.60
70366;DHT22;57787;48.216;12.396;2023-01-15T18:55:09;3.80;85.60